createdAt,value
2023-01-05T00:01:18.143Z,99084.97
2023-01-05T00:03:49.873Z,99087.91
2023-01-05T00:06:24.738Z,99087.25
2023-01-05T00:08:56.637Z,99084.28
2023-01-05T00:11:46.806Z,99088.19
2023-01-05T00:14:44.235Z,99089.03
2023-01-05T00:17:37.615Z,99078.56
2023-01-05T00:20:37.521Z,99076.09
2023-01-05T00:23:09.792Z,99061.22
2023-01-05T00:25:41.627Z,99066.69
2023-01-05T00:28:13.286Z,99067.19
2023-01-05T00:30:47.076Z,99066.97
2023-01-05T00:33:18.745Z,99060.69
2023-01-05T00:35:51.016Z,99052.59
2023-01-05T00:38:22.726Z,99041.84
2023-01-05T00:40:55.669Z,99042.69
2023-01-05T00:43:27.388Z,99037.72
2023-01-05T00:45:59.171Z,99045.22
2023-01-05T00:48:30.941Z,99032.34
2023-01-05T00:51:02.683Z,99044.94
2023-01-05T00:53:34.338Z,99033.03
2023-01-05T00:56:06.305Z,99040.69
2023-01-05T00:58:38.103Z,99039.88
2023-01-05T01:01:11.719Z,99036.78
2023-01-05T01:03:43.534Z,99042.59
2023-01-05T01:06:16.206Z,99040.13
2023-01-05T01:08:49.062Z,99032.19
2023-01-05T01:11:23.405Z,99033.34
2023-01-05T01:13:55.099Z,99029.25
2023-01-05T01:16:26.966Z,99018.03
2023-01-05T01:19:01.706Z,99017.59
2023-01-05T01:21:36.804Z,99020.41
2023-01-05T01:24:09.427Z,99027.22
2023-01-05T01:26:41.121Z,99022.75
2023-01-05T01:29:14.428Z,99023.91
2023-01-05T01:31:50.763Z,99020.94
2023-01-05T01:34:23.317Z,99008.34
2023-01-05T01:36:56.607Z,99019.94
2023-01-05T01:39:33.145Z,99004.88
2023-01-05T01:42:14.272Z,99005.22
2023-01-05T01:44:47.707Z,99009.28
2023-01-05T01:47:23.073Z,99005.00
2023-01-05T01:50:02.838Z,99009.41
2023-01-05T01:52:39.882Z,99006.59
2023-01-05T01:55:11.930Z,99007.44
2023-01-05T01:57:48.757Z,99008.88
2023-01-05T02:00:24.122Z,99007.88
2023-01-05T02:02:57.357Z,98997.59
2023-01-05T02:05:33.083Z,98998.59
2023-01-05T02:08:13.234Z,98995.78
2023-01-05T02:10:53.852Z,99009.00
2023-01-05T02:13:43.553Z,98996.44
2023-01-05T02:16:48.563Z,98991.16
2023-01-05T02:19:51.303Z,98982.41
2023-01-05T02:22:44.374Z,98978.94
2023-01-05T02:25:40.634Z,98994.78
2023-01-05T02:28:31.395Z,98993.13
2023-01-05T02:31:10.977Z,98985.59
2023-01-05T02:34:09.875Z,98991.03
2023-01-05T02:36:50.297Z,98987.41
2023-01-05T02:39:46.418Z,98994.66
2023-01-05T02:42:23.653Z,99005.41
2023-01-05T02:45:11.274Z,98999.78
2023-01-05T02:47:45.325Z,98992.31
2023-01-05T02:50:33.081Z,98989.31
2023-01-05T02:53:31.415Z,98990.78
2023-01-05T02:56:18.430Z,98990.25
2023-01-05T02:59:11.825Z,98982.50
2023-01-05T03:01:58.621Z,98981.69
2023-01-05T03:04:39.852Z,98975.94
2023-01-05T03:07:19.124Z,98955.97
2023-01-05T03:09:52.107Z,98954.38
2023-01-05T03:12:56.295Z,98965.50
2023-01-05T03:15:33.466Z,98975.78
2023-01-05T03:18:09.515Z,98968.03
2023-01-05T03:20:51.099Z,98981.06
2023-01-05T03:23:42.495Z,98970.88
2023-01-05T03:26:35.350Z,98962.28
2023-01-05T03:29:29.134Z,98971.03
2023-01-05T03:32:45.926Z,98945.63
2023-01-05T03:35:30.456Z,98961.03
2023-01-05T03:38:16.187Z,98949.97
2023-01-05T03:40:56.094Z,98951.44
2023-01-05T03:43:36.506Z,98952.91
2023-01-05T03:46:36.775Z,98948.91
2023-01-05T03:49:12.097Z,98943.63
2023-01-05T03:51:43.914Z,98951.72
2023-01-05T03:54:16.128Z,98928.97
2023-01-05T03:56:51.535Z,98931.59
2023-01-05T03:59:23.376Z,98936.59
2023-01-05T04:01:56.967Z,98922.56
2023-01-05T04:04:31.002Z,98922.94
2023-01-05T04:07:10.313Z,98919.47
2023-01-05T04:09:42.198Z,98919.75
2023-01-05T04:12:17.687Z,98920.94
2023-01-05T04:14:53.298Z,98926.22
2023-01-05T04:17:25.055Z,98920.75
2023-01-05T04:20:01.480Z,98925.22
2023-01-05T04:22:33.582Z,98920.59
2023-01-05T04:25:06.684Z,98916.75
2023-01-05T04:27:41.840Z,98922.03
2023-01-05T04:30:16.148Z,98925.50
2023-01-05T04:32:51.103Z,98923.34
2023-01-05T04:35:25.637Z,98918.41
2023-01-05T04:37:57.443Z,98919.38
2023-01-05T04:40:29.453Z,98932.97
2023-01-05T04:43:01.273Z,98931.31
2023-01-05T04:45:35.218Z,98942.06
2023-01-05T04:48:07.361Z,98939.41
2023-01-05T04:50:39.189Z,98935.94
2023-01-05T04:53:13.496Z,98938.25
2023-01-05T04:55:47.509Z,98941.50
2023-01-05T04:58:23.192Z,98940.50
2023-01-05T05:00:58.080Z,98943.97
2023-01-05T05:03:33.335Z,98938.06
2023-01-05T05:06:08.934Z,98943.34
2023-01-05T05:08:40.910Z,98949.44
2023-01-05T05:11:14.239Z,98944.34
2023-01-05T05:13:45.981Z,98946.16
2023-01-05T05:16:21.617Z,98945.06
2023-01-05T05:18:57.703Z,98952.34
2023-01-05T05:21:32.682Z,98945.78
2023-01-05T05:24:04.843Z,98948.03
2023-01-05T05:26:41.601Z,98940.94
2023-01-05T05:29:19.802Z,98942.41
2023-01-05T05:31:54.335Z,98942.97
2023-01-05T05:34:26.102Z,98945.94
2023-01-05T05:36:59.341Z,98946.78
2023-01-05T05:39:31.587Z,98946.78
2023-01-05T05:42:03.375Z,98954.03
2023-01-05T05:44:40.828Z,98959.50
2023-01-05T05:47:13.071Z,98953.22
2023-01-05T05:49:47.471Z,98953.56
2023-01-05T05:52:19.141Z,98955.41
2023-01-05T05:54:53.797Z,98963.31
2023-01-05T05:57:25.452Z,98966.31
2023-01-05T05:59:57.636Z,98982.16
2023-01-05T06:02:29.436Z,98978.88
2023-01-05T06:05:01.187Z,98981.34
2023-01-05T06:07:36.120Z,98984.44
2023-01-05T06:10:11.245Z,98991.53
2023-01-05T06:12:43.082Z,98985.91
2023-01-05T06:15:14.814Z,98997.94
2023-01-05T06:17:52.333Z,98993.00
2023-01-05T06:20:26.081Z,98991.66
2023-01-05T06:22:57.826Z,99000.34
2023-01-05T06:25:29.855Z,98999.19
2023-01-05T06:28:05.050Z,98994.56
2023-01-05T06:30:36.807Z,99004.47
2023-01-05T06:33:08.566Z,98994.56
2023-01-05T06:35:41.350Z,98996.06
2023-01-05T06:38:16.579Z,98998.50
2023-01-05T06:40:48.377Z,98995.84
2023-01-05T06:43:20.642Z,99002.50
2023-01-05T06:45:56.002Z,99007.44
2023-01-05T06:48:27.835Z,99004.44
2023-01-05T06:50:59.553Z,99007.91
2023-01-05T06:53:37.179Z,99010.16
2023-01-05T06:56:12.202Z,99016.47
2023-01-05T06:58:43.867Z,99028.31
2023-01-05T07:01:15.756Z,99029.97
2023-01-05T07:03:47.720Z,99023.50
2023-01-05T07:06:19.620Z,99019.69
2023-01-05T07:08:51.387Z,99020.34
2023-01-05T07:11:23.529Z,99021.78
2023-01-05T07:13:57.702Z,99027.56
2023-01-05T07:16:30.568Z,99026.09
2023-01-05T07:19:02.355Z,99026.91
2023-01-05T07:21:37.132Z,99032.38
2023-01-05T07:24:09.802Z,99033.19
2023-01-05T07:26:43.620Z,99047.22
2023-01-05T07:29:17.349Z,99046.22
2023-01-05T07:31:52.377Z,99059.25
2023-01-05T07:34:24.315Z,99058.06
2023-01-05T07:36:55.959Z,99066.81
2023-01-05T07:39:27.633Z,99065.00
2023-01-05T07:41:59.517Z,99067.47
2023-01-05T07:44:31.827Z,99062.19
2023-01-05T07:47:04.058Z,99070.41
2023-01-05T07:49:35.947Z,99081.81
2023-01-05T07:52:07.686Z,99073.22
2023-01-05T07:54:42.758Z,99076.03
2023-01-05T07:57:18.163Z,99072.09
2023-01-05T07:59:49.897Z,99079.03
2023-01-05T08:02:23.007Z,99089.59
2023-01-05T08:04:57.580Z,99090.88
2023-01-05T08:07:29.377Z,99094.44
2023-01-05T08:10:33.226Z,99096.47
2023-01-05T08:13:25.116Z,99089.22
2023-01-05T08:16:00.316Z,99091.06
2023-01-05T08:18:32.050Z,99088.84
2023-01-05T08:21:11.683Z,99098.75
2023-01-05T08:23:46.141Z,99095.19
2023-01-05T08:26:19.624Z,99104.34
2023-01-05T08:28:52.771Z,99110.44
2023-01-05T08:31:31.802Z,99103.41
2023-01-05T08:34:04.979Z,99106.53
2023-01-05T08:36:41.716Z,99108.63
2023-01-05T08:39:16.301Z,99107.19
2023-01-05T08:42:08.994Z,99097.84
2023-01-05T08:44:43.607Z,99107.97
2023-01-05T08:47:27.954Z,99100.66
2023-01-05T08:50:00.241Z,99108.38
2023-01-05T08:52:36.946Z,99111.38
2023-01-05T08:55:10.037Z,99108.66
2023-01-05T08:57:41.898Z,99109.34
2023-01-05T09:00:14.296Z,99124.22
2023-01-05T09:02:46.117Z,99136.59
2023-01-05T09:05:17.976Z,99135.28
2023-01-05T09:07:49.718Z,99141.19
2023-01-05T09:10:21.395Z,99146.78
2023-01-05T09:12:53.133Z,99159.06
2023-01-05T09:15:24.852Z,99153.16
2023-01-05T09:17:56.625Z,99169.38
2023-01-05T09:20:28.329Z,99176.38
2023-01-05T09:23:00.093Z,99185.44
2023-01-05T09:25:31.851Z,99188.22
2023-01-05T09:28:03.614Z,99183.59
2023-01-05T09:30:44.310Z,99196.84
2023-01-05T09:33:19.273Z,99203.91
2023-01-05T09:35:57.355Z,99201.69
2023-01-05T09:38:29.894Z,99205.50
2023-01-05T09:41:23.624Z,99205.81
2023-01-05T09:44:02.984Z,99202.41
2023-01-05T09:46:41.018Z,99202.94
2023-01-05T09:49:19.917Z,99212.00
2023-01-05T09:51:58.230Z,99216.09
2023-01-05T09:54:33.211Z,99213.34
2023-01-05T09:57:09.561Z,99213.63
2023-01-05T09:59:46.487Z,99209.22
2023-01-05T10:02:25.232Z,99216.81
2023-01-05T10:04:58.297Z,99214.75
2023-01-05T10:07:42.137Z,99212.91
2023-01-05T10:10:37.452Z,99197.88
2023-01-05T10:13:17.291Z,99209.34
2023-01-05T10:15:51.511Z,99209.19
2023-01-05T10:18:26.290Z,99200.22
2023-01-05T10:21:24.582Z,99194.56
2023-01-05T10:24:39.741Z,99206.75
2023-01-05T10:27:25.854Z,99192.06
2023-01-05T10:30:22.572Z,99197.84
2023-01-05T10:33:21.958Z,99205.44
2023-01-05T10:36:57.628Z,99195.88
2023-01-05T10:39:43.201Z,99218.25
2023-01-05T10:42:23.310Z,99207.81
2023-01-05T10:45:06.743Z,99207.84
2023-01-05T10:47:39.750Z,99210.16
2023-01-05T10:50:33.691Z,99200.56
2023-01-05T10:53:18.629Z,99196.00
2023-01-05T10:55:57.735Z,99205.03
2023-01-05T10:58:32.527Z,99212.91
2023-01-05T11:01:25.131Z,99205.69
2023-01-05T11:04:28.909Z,99208.06
2023-01-05T11:07:06.095Z,99217.81
2023-01-05T11:09:42.597Z,99202.22
2023-01-05T11:12:20.538Z,99216.63
2023-01-05T11:14:59.124Z,99217.44
2023-01-05T11:17:38.892Z,99220.25
2023-01-05T11:20:18.061Z,99216.00
2023-01-05T11:22:51.251Z,99222.53
2023-01-05T11:25:33.293Z,99210.63
2023-01-05T11:28:17.632Z,99224.09
2023-01-05T11:31:02.106Z,99206.97
2023-01-05T11:33:39.675Z,99206.38
2023-01-05T11:36:15.076Z,99208.00
2023-01-05T11:38:54.303Z,99224.81
2023-01-05T11:41:26.029Z,99216.75
2023-01-05T11:44:00.951Z,99223.72
2023-01-05T11:46:43.514Z,99226.38
2023-01-05T11:49:19.248Z,99226.31
2023-01-05T11:51:50.924Z,99216.94
2023-01-05T11:54:41.157Z,99233.44
2023-01-05T11:57:14.734Z,99234.50
2023-01-05T11:59:47.208Z,99240.75
2023-01-05T12:02:58.232Z,99241.63
2023-01-05T12:06:04.736Z,99251.66
2023-01-05T12:08:43.923Z,99237.31
2023-01-05T12:11:22.017Z,99244.84
2023-01-05T12:14:18.169Z,99251.97
2023-01-05T12:16:58.032Z,99243.19
2023-01-05T12:20:06.608Z,99251.03
2023-01-05T12:22:46.946Z,99254.06
2023-01-05T12:25:55.505Z,99247.13
2023-01-05T12:28:44.832Z,99247.56
2023-01-05T12:34:55.878Z,99251.31
2023-01-05T12:37:49.305Z,99237.97
2023-01-05T12:40:52.176Z,99242.38
2023-01-05T12:43:54.492Z,99234.50
2023-01-05T12:46:47.344Z,99237.53
2023-01-05T12:49:28.749Z,99240.91
2023-01-05T12:52:10.996Z,99233.78
2023-01-05T12:55:01.279Z,99238.75
2023-01-05T12:57:41.913Z,99244.59
2023-01-05T13:00:17.074Z,99243.91
2023-01-05T13:02:55.701Z,99235.53
2023-01-05T13:05:46.222Z,99232.00
2023-01-05T13:08:29.067Z,99240.09
2023-01-05T13:11:21.527Z,99257.28
2023-01-05T13:14:01.036Z,99251.88
2023-01-05T13:16:43.564Z,99259.31
2023-01-05T13:19:25.362Z,99269.25
2023-01-05T13:22:01.590Z,99251.44
2023-01-05T13:24:39.900Z,99266.06
2023-01-05T13:27:12.736Z,99256.94
2023-01-05T13:29:50.076Z,99270.84
2023-01-05T13:33:09.652Z,99266.31
2023-01-05T13:35:56.351Z,99271.59
2023-01-05T13:38:43.293Z,99268.94
2023-01-05T13:41:30.201Z,99277.06
2023-01-05T13:44:26.156Z,99288.41
2023-01-05T13:47:27.081Z,99289.81
2023-01-05T13:50:21.976Z,99277.44
2023-01-05T13:53:16.286Z,99281.13
2023-01-05T13:56:02.546Z,99279.38
2023-01-05T13:58:46.782Z,99288.50
2023-01-05T14:01:33.197Z,99288.25
2023-01-05T14:04:06.959Z,99294.84
2023-01-05T14:06:44.840Z,99294.38
2023-01-05T14:09:31.444Z,99305.25
2023-01-05T14:12:09.229Z,99301.41
2023-01-05T14:15:26.306Z,99308.63
2023-01-05T14:18:02.980Z,99311.09
2023-01-05T14:20:37.861Z,99321.13
2023-01-05T14:23:29.770Z,99322.56
2023-01-05T14:26:24.394Z,99332.59
2023-01-05T14:28:56.272Z,99328.34
2023-01-05T14:31:37.516Z,99328.34
2023-01-05T14:34:16.912Z,99337.50
2023-01-05T14:36:57.201Z,99331.38
2023-01-05T14:39:42.772Z,99343.50
2023-01-05T14:42:14.388Z,99345.47
2023-01-05T14:45:09.883Z,99359.59
2023-01-05T14:47:41.436Z,99366.75
2023-01-05T14:50:48.696Z,99375.44
2023-01-05T14:53:20.671Z,99375.53
2023-01-05T14:55:52.307Z,99374.59
2023-01-05T14:58:36.025Z,99361.13
2023-01-05T15:01:23.594Z,99363.94
2023-01-05T15:04:04.200Z,99360.31
2023-01-05T15:07:04.663Z,99359.69
2023-01-05T15:10:10.835Z,99375.88
2023-01-05T15:12:58.555Z,99379.19
2023-01-05T15:15:48.062Z,99397.06
2023-01-05T15:18:57.754Z,99397.91
2023-01-05T15:22:08.099Z,99390.97
2023-01-05T15:25:08.209Z,99405.00
2023-01-05T15:27:51.813Z,99405.50
2023-01-05T15:30:42.026Z,99413.44
2023-01-05T15:33:26.326Z,99400.38
2023-01-05T15:36:02.752Z,99410.63
2023-01-05T15:38:45.435Z,99419.53
2023-01-05T15:41:20.665Z,99421.19
2023-01-05T15:43:53.737Z,99411.28
2023-01-05T15:46:32.430Z,99413.28
2023-01-05T15:49:04.255Z,99410.00
2023-01-05T15:51:36.916Z,99420.56
2023-01-05T15:54:29.913Z,99418.41
2023-01-05T15:57:03.421Z,99430.63
2023-01-05T15:59:40.272Z,99431.78
2023-01-05T16:02:26.857Z,99438.88
2023-01-05T16:05:11.965Z,99440.00
2023-01-05T16:07:45.268Z,99443.66
2023-01-05T16:10:23.787Z,99448.28
2023-01-05T16:13:19.393Z,99456.16
2023-01-05T16:15:54.355Z,99456.47
2023-01-05T16:18:49.921Z,99467.50
2023-01-05T16:21:32.289Z,99466.69
2023-01-05T16:24:24.175Z,99473.59
2023-01-05T16:26:56.089Z,99479.84
2023-01-05T16:29:51.093Z,99486.44
2023-01-05T16:32:37.727Z,99498.31
2023-01-05T16:35:22.691Z,99505.03
2023-01-05T16:38:10.269Z,99492.16
2023-01-05T16:41:05.385Z,99512.78
2023-01-05T16:43:39.649Z,99510.97
2023-01-05T16:46:19.948Z,99523.03
2023-01-05T16:49:00.103Z,99528.28
2023-01-05T16:51:39.193Z,99536.38
2023-01-05T16:54:19.063Z,99541.47
2023-01-05T16:57:01.509Z,99541.78
2023-01-05T16:59:39.149Z,99537.66
2023-01-05T17:02:31.188Z,99541.47
2023-01-05T17:05:02.991Z,99544.81
2023-01-05T17:07:38.285Z,99547.44
2023-01-05T17:10:22.067Z,99553.00
2023-01-05T17:13:01.647Z,99550.88
2023-01-05T17:15:35.620Z,99546.91
2023-01-05T17:20:56.464Z,99557.44
2023-01-05T17:23:47.129Z,99559.25
2023-01-05T17:26:34.051Z,99558.09
2023-01-05T17:29:07.283Z,99565.34
2023-01-05T17:31:40.695Z,99571.63
2023-01-05T17:34:12.393Z,99573.28
2023-01-05T17:36:45.272Z,99576.22
2023-01-05T17:39:18.608Z,99565.50
2023-01-05T17:41:50.661Z,99566.50
2023-01-05T17:44:22.395Z,99574.06
2023-01-05T17:46:54.125Z,99572.94
2023-01-05T17:49:28.967Z,99577.59
2023-01-05T17:52:00.753Z,99581.56
2023-01-05T17:54:32.491Z,99583.56
2023-01-05T17:57:04.308Z,99577.78
2023-01-05T17:59:36.048Z,99581.41
2023-01-05T18:02:09.469Z,99576.81
2023-01-05T18:04:41.248Z,99580.78
2023-01-05T18:07:15.722Z,99584.09
2023-01-05T18:09:47.464Z,99584.91
2023-01-05T18:12:19.387Z,99586.53
2023-01-05T18:14:51.220Z,99586.06
2023-01-05T18:17:23.284Z,99590.16
2023-01-05T18:19:55.011Z,99592.94
2023-01-05T18:22:26.889Z,99600.34
2023-01-05T18:24:58.623Z,99595.91
2023-01-05T18:27:35.368Z,99607.09
2023-01-05T18:30:09.442Z,99600.84
2023-01-05T18:32:42.027Z,99595.09
2023-01-05T18:35:13.964Z,99606.69
2023-01-05T18:37:45.719Z,99604.03
2023-01-05T18:40:17.604Z,99599.75
2023-01-05T18:42:49.402Z,99601.41
2023-01-05T18:45:31.879Z,99605.53
2023-01-05T18:48:04.140Z,99615.31
2023-01-05T18:50:40.879Z,99616.44
2023-01-05T18:53:13.251Z,99618.75
2023-01-05T18:55:49.020Z,99623.88
2023-01-05T18:58:20.754Z,99635.22
2023-01-05T19:00:52.725Z,99625.00
2023-01-05T19:03:24.472Z,99628.75
2023-01-05T19:05:56.222Z,99632.56
2023-01-05T19:08:30.948Z,99642.09
2023-01-05T19:11:14.400Z,99647.00
2023-01-05T19:13:48.834Z,99648.66
2023-01-05T19:16:22.643Z,99652.63
2023-01-05T19:18:57.435Z,99651.81
2023-01-05T19:21:31.444Z,99657.91
2023-01-05T19:24:04.944Z,99667.13
2023-01-05T19:26:36.634Z,99674.00
2023-01-05T19:29:10.823Z,99675.13
2023-01-05T19:31:43.358Z,99665.19
2023-01-05T19:34:19.341Z,99682.53
2023-01-05T19:36:51.223Z,99681.03
2023-01-05T19:39:27.245Z,99677.03
2023-01-05T19:41:59.056Z,99684.44
2023-01-05T19:44:30.805Z,99675.84
2023-01-05T19:47:02.842Z,99673.06
2023-01-05T19:49:34.545Z,99674.88
2023-01-05T19:52:06.266Z,99672.72
2023-01-05T19:54:39.349Z,99675.34
2023-01-05T19:57:11.144Z,99675.63
2023-01-05T19:59:43.210Z,99670.38
2023-01-05T20:02:15.024Z,99671.88
2023-01-05T20:04:47.294Z,99680.06
2023-01-05T20:07:19.036Z,99677.59
2023-01-05T20:09:51.364Z,99682.84
2023-01-05T20:12:23.411Z,99681.75
2023-01-05T20:14:58.260Z,99687.34
2023-01-05T20:17:31.645Z,99677.59
2023-01-05T20:20:03.484Z,99682.34
2023-01-05T20:22:35.148Z,99674.09
2023-01-05T20:25:07.592Z,99690.03
2023-01-05T20:27:39.738Z,99686.44
2023-01-05T20:30:12.110Z,99694.19
2023-01-05T20:32:43.894Z,99695.69
2023-01-05T20:35:15.713Z,99701.78
2023-01-05T20:37:47.414Z,99705.25
2023-01-05T20:40:19.162Z,99709.88
2023-01-05T20:42:50.885Z,99716.63
2023-01-05T20:45:22.621Z,99722.88
2023-01-05T20:47:54.988Z,99723.56
2023-01-05T20:50:26.764Z,99722.81
2023-01-05T20:53:00.274Z,99733.94
2023-01-05T20:55:32.256Z,99735.75
2023-01-05T20:58:04.106Z,99734.09
2023-01-05T21:00:35.840Z,99740.84
2023-01-05T21:03:28.310Z,99749.09
2023-01-05T21:06:00.152Z,99750.19
2023-01-05T21:08:35.198Z,99762.28
2023-01-05T21:11:15.891Z,99762.28
2023-01-05T21:13:49.753Z,99764.75
2023-01-05T21:16:30.491Z,99767.22
2023-01-05T21:19:03.075Z,99763.78
2023-01-05T21:21:34.987Z,99772.50
2023-01-05T21:24:09.366Z,99763.78
2023-01-05T21:26:41.450Z,99770.03
2023-01-05T21:29:16.053Z,99776.38
2023-01-05T21:31:48.396Z,99782.38
2023-01-05T21:34:20.143Z,99778.56
2023-01-05T21:36:52.339Z,99782.03
2023-01-05T21:39:25.909Z,99782.31
2023-01-05T21:42:16.501Z,99779.81
2023-01-05T21:44:48.479Z,99780.34
2023-01-05T21:47:20.431Z,99782.44
2023-01-05T21:49:52.095Z,99786.09
2023-01-05T21:52:42.562Z,99789.72
2023-01-05T21:55:33.259Z,99781.44
2023-01-05T21:58:05.186Z,99784.19
2023-01-05T22:00:36.917Z,99787.81
2023-01-05T22:03:11.668Z,99788.13
2023-01-05T22:05:43.211Z,99788.28
2023-01-05T22:08:14.926Z,99781.78
2023-01-05T22:10:46.684Z,99785.03
2023-01-05T22:13:18.399Z,99790.88
2023-01-05T22:15:51.664Z,99795.31
2023-01-05T22:18:25.025Z,99792.25
2023-01-05T22:21:11.309Z,99793.75
2023-01-05T22:23:43.621Z,99796.91
2023-01-05T22:26:17.059Z,99805.66
2023-01-05T22:28:50.077Z,99812.44
2023-01-05T22:31:27.489Z,99811.31
2023-01-05T22:34:02.793Z,99813.94
2023-01-05T22:36:34.493Z,99810.25
2023-01-05T22:39:06.229Z,99818.59
2023-01-05T22:41:37.948Z,99821.78
2023-01-05T22:44:09.951Z,99822.59
2023-01-05T22:46:42.024Z,99824.09
2023-01-05T22:49:16.393Z,99819.22
2023-01-05T22:51:51.269Z,99826.66
2023-01-05T22:54:22.975Z,99819.31
2023-01-05T22:56:57.301Z,99816.34
2023-01-05T22:59:29.022Z,99824.81
2023-01-05T23:02:00.754Z,99829.13
2023-01-05T23:04:32.646Z,99829.91
2023-01-05T23:07:04.335Z,99832.41
2023-01-05T23:09:36.064Z,99838.84
2023-01-05T23:12:07.975Z,99833.56
2023-01-05T23:14:39.787Z,99841.28
2023-01-05T23:17:12.369Z,99833.97
2023-01-05T23:19:44.089Z,99838.59
2023-01-05T23:22:15.859Z,99833.00
2023-01-05T23:24:47.638Z,99840.78
2023-01-05T23:27:19.365Z,99837.31
2023-01-05T23:29:51.046Z,99839.56
2023-01-05T23:32:22.722Z,99844.84
2023-01-05T23:34:54.466Z,99838.03
2023-01-05T23:37:26.122Z,99836.00
2023-01-05T23:39:57.925Z,99830.13
2023-01-05T23:42:46.146Z,99835.00
2023-01-05T23:45:17.896Z,99836.53
2023-01-05T23:47:49.745Z,99839.16
2023-01-05T23:50:21.462Z,99835.84
2023-01-05T23:52:53.134Z,99832.38
2023-01-05T23:55:24.830Z,99832.91
2023-01-05T23:57:56.649Z,99832.75
